Terminal Aerodrome Forecast
Issued by NWS North Platte, NE

Home | Current Version | Previous Version | Graphics & Text | Print | Product List | Glossary On
Versions: 1 2 3 4 5 6 7 8 9 10 11 12 13 14 15 16 17 18 19 20 21 22 23
031
FTUS43 KLBF 270854 AAA
TAFVTN
TAF AMD
KVTN 270854Z 2709/2806 VRB06KT P6SM BKN120
     FM271600 03008KT P6SM BKN100
     FM271800 04010KT P6SM SCT060 BKN200
     FM272100 04012KT P6SM SCT060 BKN200 PROB30 2722/2803 P6SM -TSRA
      BKN060CB BKN120=

USA.gov is the U.S. government's official web portal to all federal, state and local government web resources and services.